createdAt,value
2018-02-18T00:00:34.809Z,4.90
2018-02-18T00:03:02.423Z,4.80
2018-02-18T00:05:30.076Z,4.90
2018-02-18T00:07:57.773Z,4.90
2018-02-18T00:10:26.153Z,4.90
2018-02-18T00:12:54.577Z,4.90
2018-02-18T00:15:22.246Z,4.80
2018-02-18T00:17:50.633Z,4.80
2018-02-18T00:20:19.059Z,4.80
2018-02-18T00:22:46.669Z,4.80
2018-02-18T00:25:14.301Z,4.80
2018-02-18T00:27:41.937Z,4.80
2018-02-18T00:30:10.364Z,4.80
2018-02-18T00:32:37.982Z,4.70
2018-02-18T00:35:05.669Z,4.80
2018-02-18T00:37:33.292Z,4.80
2018-02-18T00:40:00.892Z,4.70
2018-02-18T00:42:28.575Z,4.70
2018-02-18T00:44:56.177Z,4.80
2018-02-18T00:47:24.564Z,4.70
2018-02-18T00:49:52.184Z,4.70
2018-02-18T00:52:20.597Z,4.70
2018-02-18T00:54:48.215Z,4.70
2018-02-18T00:57:15.848Z,4.70
2018-02-18T00:59:44.219Z,4.70
2018-02-18T01:02:12.579Z,4.70
2018-02-18T01:04:41.004Z,4.70
2018-02-18T01:07:08.600Z,4.70
2018-02-18T01:09:36.204Z,4.70
2018-02-18T01:12:03.833Z,4.70
2018-02-18T01:14:31.461Z,4.70
2018-02-18T01:16:59.104Z,4.70
2018-02-18T01:19:26.705Z,4.70
2018-02-18T01:21:55.076Z,4.70
2018-02-18T01:24:22.716Z,4.70
2018-02-18T01:26:50.339Z,4.70
2018-02-18T01:29:17.936Z,4.70
2018-02-18T01:31:45.589Z,4.70
2018-02-18T01:34:13.189Z,4.70
2018-02-18T01:36:40.811Z,4.70
2018-02-18T01:39:08.436Z,4.70
2018-02-18T01:41:36.032Z,4.70
2018-02-18T01:44:03.652Z,4.70
2018-02-18T01:46:31.244Z,4.70
2018-02-18T01:48:59.636Z,4.80
2018-02-18T01:51:27.232Z,4.70
2018-02-18T01:53:54.866Z,4.80
2018-02-18T01:56:22.473Z,4.70
2018-02-18T01:58:50.105Z,4.80
2018-02-18T02:01:18.473Z,4.80
2018-02-18T02:03:46.076Z,4.70
2018-02-18T02:06:13.724Z,4.80
2018-02-18T02:08:41.327Z,4.80
2018-02-18T02:11:08.956Z,4.80
2018-02-18T02:13:36.554Z,4.80
2018-02-18T02:16:04.178Z,4.80
2018-02-18T02:18:31.782Z,4.80
2018-02-18T02:21:00.163Z,4.80
2018-02-18T02:23:27.789Z,4.80
2018-02-18T02:25:56.157Z,4.80
2018-02-18T02:28:24.552Z,4.80
2018-02-18T02:30:52.156Z,4.70
2018-02-18T02:33:19.805Z,4.80
2018-02-18T02:35:47.412Z,4.80
2018-02-18T02:38:15.021Z,4.80
2018-02-18T02:40:42.661Z,4.80
2018-02-18T02:43:11.019Z,4.70
2018-02-18T02:45:39.386Z,4.70
2018-02-18T02:48:07.792Z,4.70
2018-02-18T02:50:35.421Z,4.70
2018-02-18T02:53:03.065Z,4.70
2018-02-18T02:55:30.669Z,4.70
2018-02-18T02:57:58.628Z,4.70
2018-02-18T03:00:27.012Z,4.70
2018-02-18T03:02:55.412Z,4.70
2018-02-18T03:05:23.008Z,4.60
2018-02-18T03:07:50.745Z,4.70
2018-02-18T03:10:18.373Z,4.70
2018-02-18T03:12:46.008Z,4.70
2018-02-18T03:15:13.604Z,4.70
2018-02-18T03:17:41.976Z,4.70
2018-02-18T03:20:10.369Z,4.60
2018-02-18T03:22:37.972Z,4.60
2018-02-18T03:25:06.364Z,4.70
2018-02-18T03:27:34.057Z,4.60
2018-02-18T03:30:01.682Z,4.60
2018-02-18T03:32:29.284Z,4.70
2018-02-18T03:34:57.676Z,4.60
2018-02-18T03:37:25.295Z,4.60
2018-02-18T03:39:52.916Z,4.60
2018-02-18T03:42:20.544Z,4.70
2018-02-18T03:44:48.144Z,4.70
2018-02-18T03:47:16.565Z,4.60
2018-02-18T03:49:44.163Z,4.60
2018-02-18T03:52:11.768Z,4.60
2018-02-18T03:54:39.398Z,4.60
2018-02-18T03:57:07.001Z,4.60
2018-02-18T03:59:34.716Z,4.60
2018-02-18T04:02:03.089Z,4.60
2018-02-18T04:04:31.466Z,4.50
2018-02-18T04:06:59.852Z,4.60
2018-02-18T04:09:27.448Z,4.50
2018-02-18T04:11:55.092Z,4.60
2018-02-18T04:14:22.696Z,4.50
2018-02-18T04:16:50.320Z,4.50
2018-02-18T04:19:18.717Z,4.50
2018-02-18T04:21:46.341Z,4.50
2018-02-18T04:24:13.964Z,4.50
2018-02-18T04:26:42.323Z,4.50
2018-02-18T04:29:09.948Z,4.50
2018-02-18T04:31:37.544Z,4.50
2018-02-18T04:34:05.144Z,4.50
2018-02-18T04:36:32.785Z,4.50
2018-02-18T04:39:00.380Z,4.50
2018-02-18T04:41:27.988Z,4.50
2018-02-18T04:43:55.632Z,4.50
2018-02-18T04:46:23.227Z,4.50
2018-02-18T04:48:50.828Z,4.40
2018-02-18T04:51:18.470Z,4.50
2018-02-18T04:53:46.069Z,4.50
2018-02-18T04:56:13.664Z,4.40
2018-02-18T04:58:41.304Z,4.40
2018-02-18T05:01:08.899Z,4.40
2018-02-18T05:03:36.500Z,4.40
2018-02-18T05:06:04.164Z,4.40
2018-02-18T05:08:32.559Z,4.40
2018-02-18T05:11:00.164Z,4.40
2018-02-18T05:13:27.759Z,4.40
2018-02-18T05:15:55.379Z,4.40
2018-02-18T05:18:23.037Z,4.40
2018-02-18T05:20:51.413Z,4.40
2018-02-18T05:23:19.010Z,4.40
2018-02-18T05:25:46.616Z,4.40
2018-02-18T05:28:14.241Z,4.40
2018-02-18T05:30:41.880Z,4.40
2018-02-18T05:33:10.245Z,4.40
2018-02-18T05:35:38.600Z,4.40
2018-02-18T05:38:06.995Z,4.40
2018-02-18T05:40:36.252Z,4.40
2018-02-18T05:43:04.641Z,4.40
2018-02-18T05:45:32.236Z,4.40
2018-02-18T05:47:59.836Z,4.40
2018-02-18T05:50:27.463Z,4.40
2018-02-18T05:52:55.167Z,4.40
2018-02-18T05:55:22.800Z,4.40
2018-02-18T05:57:50.400Z,4.40
2018-02-18T06:00:18.936Z,4.40
2018-02-18T06:02:46.532Z,4.30
2018-02-18T06:05:14.172Z,4.40
2018-02-18T06:07:41.773Z,4.40
2018-02-18T06:10:09.384Z,4.40
2018-02-18T06:12:37.013Z,4.30
2018-02-18T06:15:04.618Z,4.40
2018-02-18T06:17:32.262Z,4.40
2018-02-18T06:19:59.864Z,4.30
2018-02-18T06:22:27.469Z,4.30
2018-02-18T06:24:55.101Z,4.30
2018-02-18T06:27:22.979Z,4.40
2018-02-18T06:29:51.345Z,4.30
2018-02-18T06:32:19.741Z,4.40
2018-02-18T06:34:47.340Z,4.30
2018-02-18T06:37:14.940Z,4.30
2018-02-18T06:39:42.561Z,4.30
2018-02-18T06:42:10.204Z,4.30
2018-02-18T06:44:37.810Z,4.20
2018-02-18T06:47:05.415Z,4.20
2018-02-18T06:49:33.048Z,4.20
2018-02-18T06:52:00.705Z,4.20
2018-02-18T06:54:28.307Z,4.20
2018-02-18T06:56:56.060Z,4.20
2018-02-18T06:59:23.667Z,4.20
2018-02-18T07:01:51.332Z,4.20
2018-02-18T07:04:18.928Z,4.20
2018-02-18T07:06:46.529Z,4.20
2018-02-18T07:09:14.157Z,4.20
2018-02-18T07:11:41.756Z,4.20
2018-02-18T07:14:10.144Z,4.30
2018-02-18T07:16:37.739Z,4.20
2018-02-18T07:19:05.368Z,4.30
2018-02-18T07:21:32.960Z,4.30
2018-02-18T07:24:01.361Z,4.30
2018-02-18T07:26:28.960Z,4.20
2018-02-18T07:28:57.360Z,4.30
2018-02-18T07:31:25.041Z,4.30
2018-02-18T07:33:52.635Z,4.30
2018-02-18T07:36:21.033Z,4.30
2018-02-18T07:38:48.628Z,4.20
2018-02-18T07:41:18.036Z,4.30
2018-02-18T07:43:45.639Z,4.20
2018-02-18T07:46:13.260Z,4.20
2018-02-18T07:48:40.856Z,4.30
2018-02-18T07:51:09.266Z,4.30
2018-02-18T07:53:36.863Z,4.30
2018-02-18T07:56:04.469Z,4.30
2018-02-18T07:58:32.109Z,4.30
2018-02-18T08:00:59.714Z,4.30
2018-02-18T08:03:28.081Z,4.40
2018-02-18T08:05:56.476Z,4.30
2018-02-18T08:08:24.100Z,4.30
2018-02-18T08:10:52.704Z,4.30
2018-02-18T08:13:20.296Z,4.30
2018-02-18T08:15:48.689Z,4.30
2018-02-18T08:18:16.292Z,4.30
2018-02-18T08:20:43.920Z,4.40
2018-02-18T08:23:11.522Z,4.30
2018-02-18T08:25:39.131Z,4.40
2018-02-18T08:28:06.764Z,4.30
2018-02-18T08:30:34.369Z,4.40
2018-02-18T08:33:01.991Z,4.40
2018-02-18T08:35:30.355Z,4.40
2018-02-18T08:37:58.792Z,4.40
2018-02-18T08:40:26.393Z,4.30
2018-02-18T08:42:54.036Z,4.40
2018-02-18T08:45:21.636Z,4.40
2018-02-18T08:47:49.236Z,4.40
2018-02-18T08:50:16.860Z,4.40
2018-02-18T08:52:44.465Z,4.40
2018-02-18T08:55:12.092Z,4.40
2018-02-18T08:57:44.823Z,4.40
2018-02-18T09:00:16.470Z,4.40
2018-02-18T09:02:44.313Z,4.40
2018-02-18T09:05:11.917Z,4.50
2018-02-18T09:07:39.540Z,4.40
2018-02-18T09:10:07.276Z,4.40
2018-02-18T09:12:35.886Z,4.50
2018-02-18T09:15:04.403Z,4.50
2018-02-18T09:17:32.009Z,4.40
2018-02-18T09:19:59.637Z,4.50
2018-02-18T09:22:27.272Z,4.50
2018-02-18T09:24:54.872Z,4.50
2018-02-18T09:27:23.261Z,4.60
2018-02-18T09:29:51.238Z,4.50
2018-02-18T09:32:18.905Z,4.60
2018-02-18T09:34:47.320Z,4.70
2018-02-18T09:37:14.948Z,4.60
2018-02-18T09:39:43.340Z,4.70
2018-02-18T09:42:10.988Z,4.70
2018-02-18T09:44:38.676Z,4.70
2018-02-18T09:47:06.322Z,4.70
2018-02-18T09:49:34.913Z,4.70
2018-02-18T09:52:03.384Z,4.70
2018-02-18T09:54:31.825Z,4.70
2018-02-18T09:56:59.472Z,4.70
2018-02-18T09:59:27.111Z,4.80
2018-02-18T10:01:54.725Z,4.80
2018-02-18T10:04:22.353Z,4.80
2018-02-18T10:06:49.956Z,4.70
2018-02-18T10:09:17.601Z,4.80
2018-02-18T10:11:45.200Z,4.70
2018-02-18T10:14:12.801Z,4.70
2018-02-18T10:16:40.428Z,4.80
2018-02-18T10:19:08.075Z,4.80
2018-02-18T10:21:35.757Z,4.80
2018-02-18T10:24:04.345Z,4.70
2018-02-18T10:26:31.990Z,4.70
2018-02-18T10:29:01.858Z,4.80
2018-02-18T10:31:29.528Z,4.70
2018-02-18T10:33:57.904Z,4.80
2018-02-18T10:36:26.268Z,4.70
2018-02-18T10:38:53.970Z,4.70
2018-02-18T10:41:25.418Z,4.80
2018-02-18T10:43:53.110Z,4.80
2018-02-18T10:46:20.735Z,4.80
2018-02-18T10:48:49.176Z,4.80
2018-02-18T10:51:16.921Z,4.80
2018-02-18T10:53:44.778Z,4.80
2018-02-18T10:56:12.628Z,4.80
2018-02-18T10:58:41.113Z,4.80
2018-02-18T11:01:09.517Z,4.80
2018-02-18T11:03:37.120Z,4.80
2018-02-18T11:06:04.787Z,4.80
2018-02-18T11:08:32.393Z,4.80
2018-02-18T11:11:00.000Z,4.80
2018-02-18T11:13:27.638Z,4.80
2018-02-18T11:15:55.540Z,4.80
2018-02-18T11:18:24.088Z,4.80
2018-02-18T11:20:51.791Z,4.80
2018-02-18T11:23:19.476Z,4.90
2018-02-18T11:25:47.073Z,4.90
2018-02-18T11:28:15.467Z,4.90
2018-02-18T11:30:43.077Z,4.90
2018-02-18T11:33:10.700Z,4.90
2018-02-18T11:35:38.369Z,4.90
2018-02-18T11:38:06.015Z,4.90
2018-02-18T11:40:33.763Z,4.90
2018-02-18T11:43:02.161Z,4.80
2018-02-18T11:45:29.788Z,4.80
2018-02-18T11:47:58.184Z,4.80
2018-02-18T11:50:25.861Z,4.80
2018-02-18T11:52:53.500Z,4.80
2018-02-18T11:55:21.185Z,4.90
2018-02-18T11:57:48.821Z,4.80
2018-02-18T12:00:16.420Z,4.80
2018-02-18T12:02:44.070Z,4.90
2018-02-18T12:05:11.680Z,4.80
2018-02-18T12:07:40.050Z,4.80
2018-02-18T12:10:08.440Z,4.70
2018-02-18T12:12:36.036Z,4.70
2018-02-18T12:15:03.666Z,4.70
2018-02-18T12:17:31.268Z,4.70
2018-02-18T12:19:58.904Z,4.70
2018-02-18T12:22:27.395Z,4.70
2018-02-18T12:24:55.025Z,4.70
2018-02-18T12:27:22.677Z,4.70
2018-02-18T12:29:50.378Z,4.70
2018-02-18T12:32:18.487Z,4.70
2018-02-18T12:34:46.095Z,4.80
2018-02-18T12:37:13.721Z,4.80
2018-02-18T12:39:41.324Z,4.70
2018-02-18T12:42:08.968Z,4.70
2018-02-18T12:44:36.575Z,4.70
2018-02-18T12:47:04.176Z,4.70
2018-02-18T12:49:31.808Z,4.70
2018-02-18T12:51:59.412Z,4.60
2018-02-18T12:54:27.052Z,4.60
2018-02-18T12:56:54.671Z,4.60
2018-02-18T12:59:22.316Z,4.60
2018-02-18T13:01:49.916Z,4.70
2018-02-18T13:04:17.512Z,4.70
2018-02-18T13:06:45.143Z,4.70
2018-02-18T13:09:12.748Z,4.70
2018-02-18T13:11:40.348Z,4.70
2018-02-18T13:14:07.988Z,4.80
2018-02-18T13:16:35.596Z,4.80
2018-02-18T13:19:03.960Z,4.80
2018-02-18T13:21:32.360Z,4.80
2018-02-18T13:23:59.988Z,4.80
2018-02-18T13:26:27.586Z,4.80
2018-02-18T13:28:55.218Z,4.80
2018-02-18T13:31:22.849Z,4.80
2018-02-18T13:33:50.457Z,4.80
2018-02-18T13:36:18.852Z,4.90
2018-02-18T13:38:46.448Z,4.80
2018-02-18T13:41:14.877Z,4.80
2018-02-18T13:43:42.500Z,4.80
2018-02-18T13:46:10.108Z,4.80
2018-02-18T13:48:38.492Z,4.80
2018-02-18T13:51:06.901Z,4.80
2018-02-18T13:53:34.496Z,4.80
2018-02-18T13:56:02.100Z,4.80
2018-02-18T13:58:29.724Z,4.80
2018-02-18T14:00:57.317Z,4.90
2018-02-18T14:03:24.954Z,4.90
2018-02-18T14:05:52.557Z,4.90
2018-02-18T14:08:20.160Z,4.90
2018-02-18T14:10:47.788Z,5.00
2018-02-18T14:13:15.380Z,5.00
2018-02-18T14:15:43.749Z,5.00
2018-02-18T14:18:12.139Z,5.00
2018-02-18T14:20:39.740Z,5.00
2018-02-18T14:23:08.136Z,5.00
2018-02-18T14:25:35.845Z,5.00
2018-02-18T14:28:03.493Z,5.00
2018-02-18T14:30:31.100Z,5.00
2018-02-18T14:32:58.704Z,5.00
2018-02-18T14:35:27.088Z,4.90
2018-02-18T14:37:54.693Z,4.90
2018-02-18T14:40:22.341Z,4.90
2018-02-18T14:43:01.747Z,4.90
2018-02-18T14:45:41.280Z,4.80
2018-02-18T14:48:20.673Z,4.70
2018-02-18T14:51:00.117Z,4.70
2018-02-18T14:53:39.665Z,4.70
2018-02-18T14:56:17.033Z,4.60
2018-02-18T14:58:44.634Z,4.60
2018-02-18T15:01:12.236Z,4.50
2018-02-18T15:03:40.635Z,4.50
2018-02-18T15:06:08.240Z,4.40
2018-02-18T15:08:35.862Z,4.40
2018-02-18T15:11:03.461Z,4.40
2018-02-18T15:13:31.088Z,4.40
2018-02-18T15:15:59.457Z,4.40
2018-02-18T15:18:27.860Z,4.40
2018-02-18T15:20:55.460Z,4.30
2018-02-18T15:23:23.905Z,4.40
2018-02-18T15:25:51.524Z,4.40
2018-02-18T15:28:19.124Z,4.50
2018-02-18T15:30:47.528Z,4.60
2018-02-18T15:33:15.130Z,4.60
2018-02-18T15:35:43.503Z,4.70
2018-02-18T15:38:11.896Z,4.70
2018-02-18T15:40:39.500Z,4.60
2018-02-18T15:43:07.134Z,4.70
2018-02-18T15:45:34.748Z,4.70
2018-02-18T15:48:02.388Z,4.70
2018-02-18T15:50:30.071Z,4.70
2018-02-18T15:52:57.840Z,4.70
2018-02-18T15:55:26.251Z,4.70
2018-02-18T15:57:54.041Z,4.60
2018-02-18T16:00:21.696Z,4.70
2018-02-18T16:02:49.461Z,4.70
2018-02-18T16:05:17.934Z,4.70
2018-02-18T16:07:45.558Z,4.70
2018-02-18T16:10:13.200Z,4.70
2018-02-18T16:12:40.894Z,4.70
2018-02-18T16:15:08.517Z,4.70
2018-02-18T16:17:36.937Z,4.70
2018-02-18T16:20:04.533Z,4.70
2018-02-18T16:22:32.925Z,4.70
2018-02-18T16:25:00.549Z,4.70
2018-02-18T16:27:28.181Z,4.70
2018-02-18T16:29:56.553Z,4.70
2018-02-18T16:32:24.921Z,4.70
2018-02-18T16:34:52.562Z,4.60
2018-02-18T16:37:20.947Z,4.70
2018-02-18T16:39:48.577Z,4.60
2018-02-18T16:42:18.283Z,4.60
2018-02-18T16:44:45.961Z,4.60
2018-02-18T16:47:13.599Z,4.60
2018-02-18T16:49:41.219Z,4.60
2018-02-18T16:52:14.273Z,4.60
2018-02-18T16:54:42.152Z,4.60
2018-02-18T16:57:09.792Z,4.60
2018-02-18T16:59:37.402Z,4.50
2018-02-18T17:02:05.008Z,4.50
2018-02-18T17:04:32.636Z,4.50
2018-02-18T17:07:00.233Z,4.50
2018-02-18T17:09:27.875Z,4.50
2018-02-18T17:11:55.484Z,4.50
2018-02-18T17:14:23.080Z,4.50
2018-02-18T17:16:50.717Z,4.50
2018-02-18T17:19:18.308Z,4.40
2018-02-18T17:21:45.905Z,4.40
2018-02-18T17:24:13.547Z,4.40
2018-02-18T17:26:41.148Z,4.40
2018-02-18T17:29:08.757Z,4.30
2018-02-18T17:31:36.384Z,4.30
2018-02-18T17:34:03.980Z,4.30
2018-02-18T17:36:32.372Z,4.30
2018-02-18T17:38:59.992Z,4.20
2018-02-18T17:41:31.755Z,4.30
2018-02-18T17:43:59.594Z,4.20
2018-02-18T17:46:27.221Z,4.30
2018-02-18T17:48:55.608Z,4.30
2018-02-18T17:51:23.240Z,4.30
2018-02-18T17:53:51.632Z,4.30
2018-02-18T17:56:19.268Z,4.30
2018-02-18T17:58:47.632Z,4.30
2018-02-18T18:01:15.261Z,4.30
2018-02-18T18:03:43.628Z,4.30
2018-02-18T18:06:12.037Z,4.40
2018-02-18T18:08:39.637Z,4.30
2018-02-18T18:11:08.006Z,4.40
2018-02-18T18:13:35.686Z,4.40
2018-02-18T18:16:03.286Z,4.40
2018-02-18T18:18:30.916Z,4.40
2018-02-18T18:20:58.528Z,4.40
2018-02-18T18:23:26.178Z,4.40
2018-02-18T18:25:53.792Z,4.40
2018-02-18T18:28:21.406Z,4.50
2018-02-18T18:30:49.045Z,4.40
2018-02-18T18:33:16.668Z,4.50
2018-02-18T18:35:44.272Z,4.40
2018-02-18T18:38:12.667Z,4.40
2018-02-18T18:40:40.326Z,4.40
2018-02-18T18:43:07.912Z,4.40
2018-02-18T18:45:36.346Z,4.30
2018-02-18T18:48:04.044Z,4.30
2018-02-18T18:50:31.672Z,4.40
2018-02-18T18:52:59.399Z,4.30
2018-02-18T18:55:27.029Z,4.40
2018-02-18T18:57:54.641Z,4.40
2018-02-18T19:00:22.844Z,4.40
2018-02-18T19:02:50.465Z,4.40
2018-02-18T19:05:18.061Z,4.40
2018-02-18T19:07:45.686Z,4.40
2018-02-18T19:10:13.362Z,4.40
2018-02-18T19:12:41.754Z,4.50
2018-02-18T19:15:09.380Z,4.40
2018-02-18T19:17:40.993Z,4.40
2018-02-18T19:20:09.416Z,4.40
2018-02-18T19:22:37.016Z,4.40
2018-02-18T19:25:05.393Z,4.40
2018-02-18T19:27:37.462Z,4.50
2018-02-18T19:30:05.413Z,4.40
2018-02-18T19:32:33.047Z,4.40
2018-02-18T19:35:01.431Z,4.40
2018-02-18T19:37:29.076Z,4.40
2018-02-18T19:39:56.745Z,4.50
2018-02-18T19:42:24.352Z,4.40
2018-02-18T19:44:52.715Z,4.40
2018-02-18T19:47:21.109Z,4.50
2018-02-18T19:49:48.720Z,4.40
2018-02-18T19:52:16.364Z,4.40
2018-02-18T19:54:43.965Z,4.40
2018-02-18T19:57:11.593Z,4.40
2018-02-18T19:59:39.237Z,4.40
2018-02-18T20:02:06.851Z,4.40
2018-02-18T20:04:35.254Z,4.40
2018-02-18T20:07:02.856Z,4.30
2018-02-18T20:09:30.482Z,4.40
2018-02-18T20:11:58.077Z,4.40
2018-02-18T20:14:25.715Z,4.30
2018-02-18T20:16:54.088Z,4.40
2018-02-18T20:19:21.699Z,4.30
2018-02-18T20:21:49.325Z,4.40
2018-02-18T20:24:16.925Z,4.40
2018-02-18T20:26:44.556Z,4.40
2018-02-18T20:29:12.924Z,4.40
2018-02-18T20:31:41.312Z,4.30
2018-02-18T20:34:08.912Z,4.30
2018-02-18T20:36:36.509Z,4.40
2018-02-18T20:39:04.978Z,4.40
2018-02-18T20:41:35.629Z,4.40
2018-02-18T20:44:04.145Z,4.30
2018-02-18T20:46:31.773Z,4.30
2018-02-18T20:49:00.145Z,4.40
2018-02-18T20:51:28.587Z,4.40
2018-02-18T20:53:56.204Z,4.30
2018-02-18T20:56:23.855Z,4.40
2018-02-18T20:58:51.456Z,4.40
2018-02-18T21:01:19.088Z,4.40
2018-02-18T21:03:46.713Z,4.40
2018-02-18T21:06:14.324Z,4.40
2018-02-18T21:08:41.948Z,4.40
2018-02-18T21:11:10.269Z,4.30
2018-02-18T21:13:37.972Z,4.40
2018-02-18T21:16:05.668Z,4.30
2018-02-18T21:18:33.308Z,4.40
2018-02-18T21:21:00.908Z,4.40
2018-02-18T21:23:28.517Z,4.40
2018-02-18T21:25:56.152Z,4.30
2018-02-18T21:28:23.765Z,4.30
2018-02-18T21:30:51.413Z,4.30
2018-02-18T21:33:19.016Z,4.30
2018-02-18T21:35:58.117Z,4.40
2018-02-18T21:38:25.708Z,4.30
2018-02-18T21:40:53.310Z,4.30
2018-02-18T21:43:20.938Z,4.30
2018-02-18T21:45:48.537Z,4.30
2018-02-18T21:48:16.163Z,4.30
2018-02-18T21:50:44.528Z,4.30
2018-02-18T21:53:12.932Z,4.20
2018-02-18T21:55:40.528Z,4.20
2018-02-18T21:58:08.128Z,4.20
2018-02-18T22:00:35.764Z,4.10
2018-02-18T22:03:03.361Z,4.10
2018-02-18T22:05:30.959Z,4.10
2018-02-18T22:07:58.589Z,4.10
2018-02-18T22:10:26.212Z,4.10
2018-02-18T22:12:53.841Z,4.10
2018-02-18T22:15:21.464Z,4.10
2018-02-18T22:17:49.061Z,4.20
2018-02-18T22:20:17.456Z,4.20
2018-02-18T22:22:45.065Z,4.10
2018-02-18T22:25:13.432Z,4.20
2018-02-18T22:27:41.073Z,4.20
2018-02-18T22:30:09.460Z,4.20
2018-02-18T22:32:37.853Z,4.30
2018-02-18T22:35:05.446Z,4.20
2018-02-18T22:37:33.857Z,4.30
2018-02-18T22:40:01.461Z,4.20
2018-02-18T22:42:29.828Z,4.30
2018-02-18T22:44:58.258Z,4.30
2018-02-18T22:47:25.849Z,4.30
2018-02-18T22:49:53.596Z,4.30
2018-02-18T22:52:21.199Z,4.30
2018-02-18T22:54:48.824Z,4.30
2018-02-18T22:57:16.500Z,4.40
2018-02-18T22:59:44.145Z,4.40
2018-02-18T23:02:11.735Z,4.30
2018-02-18T23:04:39.331Z,4.30
2018-02-18T23:07:07.784Z,4.30
2018-02-18T23:09:35.380Z,4.30
2018-02-18T23:12:03.779Z,4.30
2018-02-18T23:14:31.380Z,4.30
2018-02-18T23:16:59.769Z,4.30
2018-02-18T23:19:27.373Z,4.20
2018-02-18T23:21:55.012Z,4.30
2018-02-18T23:24:22.604Z,4.30
2018-02-18T23:26:50.968Z,4.20
2018-02-18T23:29:18.624Z,4.20
2018-02-18T23:31:46.252Z,4.20
2018-02-18T23:34:14.621Z,4.20
2018-02-18T23:36:43.028Z,4.20
2018-02-18T23:39:10.628Z,4.20
2018-02-18T23:41:38.985Z,4.20
2018-02-18T23:44:07.372Z,4.20
2018-02-18T23:46:35.008Z,4.20
2018-02-18T23:49:03.387Z,4.20
2018-02-18T23:51:30.988Z,4.20
2018-02-18T23:53:58.612Z,4.20
2018-02-18T23:56:26.213Z,4.20
2018-02-18T23:58:53.840Z,4.20
